sensor_id;sensor_type;location;lat;lon;timestamp;P1;durP1;ratioP1;P2;durP2;ratioP2
68432;SDS011;55412;51.350;17.056;2024-03-29T00:00:52;5.00;;;0.70;;
68432;SDS011;55412;51.350;17.056;2024-03-29T00:03:18;3.60;;;0.60;;
68432;SDS011;55412;51.350;17.056;2024-03-29T00:05:44;3.42;;;0.73;;
68432;SDS011;55412;51.350;17.056;2024-03-29T00:08:10;3.73;;;0.60;;
68432;SDS011;55412;51.350;17.056;2024-03-29T00:10:36;4.00;;;0.60;;
68432;SDS011;55412;51.350;17.056;2024-03-29T00:13:01;3.77;;;0.70;;
68432;SDS011;55412;51.350;17.056;2024-03-29T00:15:27;4.07;;;0.50;;
68432;SDS011;55412;51.350;17.056;2024-03-29T00:17:53;5.18;;;0.88;;
68432;SDS011;55412;51.350;17.056;2024-03-29T00:20:22;4.67;;;0.83;;
68432;SDS011;55412;51.350;17.056;2024-03-29T00:22:48;5.95;;;0.70;;
68432;SDS011;55412;51.350;17.056;2024-03-29T00:25:14;3.35;;;0.40;;
68432;SDS011;55412;51.350;17.056;2024-03-29T00:27:39;4.27;;;0.60;;
68432;SDS011;55412;51.350;17.056;2024-03-29T00:30:05;6.32;;;0.43;;
68432;SDS011;55412;51.350;17.056;2024-03-29T00:32:31;2.97;;;0.43;;
68432;SDS011;55412;51.350;17.056;2024-03-29T00:34:57;3.78;;;0.60;;
68432;SDS011;55412;51.350;17.056;2024-03-29T00:37:23;4.23;;;1.00;;
68432;SDS011;55412;51.350;17.056;2024-03-29T00:39:49;4.45;;;0.43;;
68432;SDS011;55412;51.350;17.056;2024-03-29T00:42:15;3.20;;;0.52;;
68432;SDS011;55412;51.350;17.056;2024-03-29T00:44:42;3.55;;;0.45;;
68432;SDS011;55412;51.350;17.056;2024-03-29T00:47:08;2.88;;;0.50;;
68432;SDS011;55412;51.350;17.056;2024-03-29T00:49:34;5.40;;;0.60;;
68432;SDS011;55412;51.350;17.056;2024-03-29T00:52:01;2.85;;;0.40;;
68432;SDS011;55412;51.350;17.056;2024-03-29T00:54:27;2.78;;;0.50;;
68432;SDS011;55412;51.350;17.056;2024-03-29T00:56:53;2.77;;;0.60;;
68432;SDS011;55412;51.350;17.056;2024-03-29T00:59:19;4.22;;;0.77;;
68432;SDS011;55412;51.350;17.056;2024-03-29T01:01:45;3.67;;;0.77;;
68432;SDS011;55412;51.350;17.056;2024-03-29T01:04:11;3.65;;;0.70;;
68432;SDS011;55412;51.350;17.056;2024-03-29T01:06:38;2.80;;;0.60;;
68432;SDS011;55412;51.350;17.056;2024-03-29T01:09:05;2.90;;;0.82;;
68432;SDS011;55412;51.350;17.056;2024-03-29T01:11:31;3.50;;;0.65;;
68432;SDS011;55412;51.350;17.056;2024-03-29T01:13:57;3.65;;;0.63;;
68432;SDS011;55412;51.350;17.056;2024-03-29T01:16:23;4.60;;;0.60;;
68432;SDS011;55412;51.350;17.056;2024-03-29T01:18:49;3.67;;;0.60;;
68432;SDS011;55412;51.350;17.056;2024-03-29T01:21:17;3.72;;;0.85;;
68432;SDS011;55412;51.350;17.056;2024-03-29T01:23:43;3.85;;;0.60;;
68432;SDS011;55412;51.350;17.056;2024-03-29T01:26:09;3.20;;;0.77;;
68432;SDS011;55412;51.350;17.056;2024-03-29T01:28:37;5.37;;;1.10;;
68432;SDS011;55412;51.350;17.056;2024-03-29T01:31:04;6.00;;;1.00;;
68432;SDS011;55412;51.350;17.056;2024-03-29T01:33:30;4.32;;;0.77;;
68432;SDS011;55412;51.350;17.056;2024-03-29T01:36:03;3.90;;;1.13;;
68432;SDS011;55412;51.350;17.056;2024-03-29T01:38:29;4.28;;;1.02;;
68432;SDS011;55412;51.350;17.056;2024-03-29T01:40:55;4.57;;;1.30;;
68432;SDS011;55412;51.350;17.056;2024-03-29T01:43:21;4.53;;;1.20;;
68432;SDS011;55412;51.350;17.056;2024-03-29T01:45:47;4.23;;;1.20;;
68432;SDS011;55412;51.350;17.056;2024-03-29T01:48:15;3.50;;;1.02;;
68432;SDS011;55412;51.350;17.056;2024-03-29T01:50:42;4.25;;;1.27;;
68432;SDS011;55412;51.350;17.056;2024-03-29T01:53:08;4.72;;;1.33;;
68432;SDS011;55412;51.350;17.056;2024-03-29T01:55:35;4.13;;;1.87;;
68432;SDS011;55412;51.350;17.056;2024-03-29T01:58:01;4.53;;;1.38;;
68432;SDS011;55412;51.350;17.056;2024-03-29T02:00:27;4.07;;;1.13;;
68432;SDS011;55412;51.350;17.056;2024-03-29T02:02:55;4.50;;;1.25;;
68432;SDS011;55412;51.350;17.056;2024-03-29T02:05:22;5.15;;;1.33;;
68432;SDS011;55412;51.350;17.056;2024-03-29T02:07:47;6.30;;;1.93;;
68432;SDS011;55412;51.350;17.056;2024-03-29T02:10:16;4.43;;;1.30;;
68432;SDS011;55412;51.350;17.056;2024-03-29T02:12:42;3.90;;;1.35;;
68432;SDS011;55412;51.350;17.056;2024-03-29T02:15:08;7.20;;;1.70;;
68432;SDS011;55412;51.350;17.056;2024-03-29T02:17:39;5.68;;;1.55;;
68432;SDS011;55412;51.350;17.056;2024-03-29T02:20:05;4.63;;;1.42;;
68432;SDS011;55412;51.350;17.056;2024-03-29T02:22:30;5.40;;;1.50;;
68432;SDS011;55412;51.350;17.056;2024-03-29T02:25:00;3.85;;;1.08;;
68432;SDS011;55412;51.350;17.056;2024-03-29T02:27:26;4.97;;;1.50;;
68432;SDS011;55412;51.350;17.056;2024-03-29T02:29:52;5.32;;;1.65;;
68432;SDS011;55412;51.350;17.056;2024-03-29T02:32:18;4.90;;;2.10;;
68432;SDS011;55412;51.350;17.056;2024-03-29T02:34:44;3.85;;;1.42;;
68432;SDS011;55412;51.350;17.056;2024-03-29T02:37:09;4.80;;;1.63;;
68432;SDS011;55412;51.350;17.056;2024-03-29T02:39:35;4.40;;;1.55;;
68432;SDS011;55412;51.350;17.056;2024-03-29T02:42:01;4.17;;;1.60;;
68432;SDS011;55412;51.350;17.056;2024-03-29T02:44:26;3.67;;;1.40;;
68432;SDS011;55412;51.350;17.056;2024-03-29T02:46:52;4.47;;;1.57;;
68432;SDS011;55412;51.350;17.056;2024-03-29T02:49:18;5.23;;;1.53;;
68432;SDS011;55412;51.350;17.056;2024-03-29T02:51:43;4.80;;;1.50;;
68432;SDS011;55412;51.350;17.056;2024-03-29T02:54:09;4.15;;;1.40;;
68432;SDS011;55412;51.350;17.056;2024-03-29T02:56:35;5.33;;;1.77;;
68432;SDS011;55412;51.350;17.056;2024-03-29T02:59:01;4.15;;;1.58;;
68432;SDS011;55412;51.350;17.056;2024-03-29T03:01:27;4.87;;;1.40;;
68432;SDS011;55412;51.350;17.056;2024-03-29T03:03:53;4.00;;;1.23;;
68432;SDS011;55412;51.350;17.056;2024-03-29T03:06:18;4.60;;;1.77;;
68432;SDS011;55412;51.350;17.056;2024-03-29T03:08:44;6.00;;;1.83;;
68432;SDS011;55412;51.350;17.056;2024-03-29T03:11:28;6.53;;;2.13;;
68432;SDS011;55412;51.350;17.056;2024-03-29T03:13:54;5.47;;;2.17;;
68432;SDS011;55412;51.350;17.056;2024-03-29T03:16:19;4.78;;;1.88;;
68432;SDS011;55412;51.350;17.056;2024-03-29T03:18:45;7.10;;;2.53;;
68432;SDS011;55412;51.350;17.056;2024-03-29T03:21:11;5.93;;;1.77;;
68432;SDS011;55412;51.350;17.056;2024-03-29T03:23:37;4.70;;;2.00;;
68432;SDS011;55412;51.350;17.056;2024-03-29T03:26:03;4.93;;;2.03;;
68432;SDS011;55412;51.350;17.056;2024-03-29T03:28:31;6.18;;;2.58;;
68432;SDS011;55412;51.350;17.056;2024-03-29T03:30:57;5.90;;;2.30;;
68432;SDS011;55412;51.350;17.056;2024-03-29T03:33:22;4.63;;;1.77;;
68432;SDS011;55412;51.350;17.056;2024-03-29T03:35:48;4.90;;;1.93;;
68432;SDS011;55412;51.350;17.056;2024-03-29T03:38:14;4.95;;;2.30;;
68432;SDS011;55412;51.350;17.056;2024-03-29T03:40:41;5.60;;;2.15;;
68432;SDS011;55412;51.350;17.056;2024-03-29T03:43:08;5.40;;;2.50;;
68432;SDS011;55412;51.350;17.056;2024-03-29T03:45:35;5.93;;;2.20;;
68432;SDS011;55412;51.350;17.056;2024-03-29T03:48:05;4.93;;;2.22;;
68432;SDS011;55412;51.350;17.056;2024-03-29T03:50:33;5.93;;;2.70;;
68432;SDS011;55412;51.350;17.056;2024-03-29T03:52:59;5.65;;;2.80;;
68432;SDS011;55412;51.350;17.056;2024-03-29T03:55:25;4.37;;;2.00;;
68432;SDS011;55412;51.350;17.056;2024-03-29T03:57:51;5.38;;;2.25;;
68432;SDS011;55412;51.350;17.056;2024-03-29T04:00:18;6.32;;;2.38;;
68432;SDS011;55412;51.350;17.056;2024-03-29T04:02:47;4.95;;;2.28;;
68432;SDS011;55412;51.350;17.056;2024-03-29T04:05:14;5.10;;;2.30;;
68432;SDS011;55412;51.350;17.056;2024-03-29T04:07:41;5.25;;;2.10;;
68432;SDS011;55412;51.350;17.056;2024-03-29T04:10:07;5.47;;;2.67;;
68432;SDS011;55412;51.350;17.056;2024-03-29T04:12:33;5.28;;;2.40;;
68432;SDS011;55412;51.350;17.056;2024-03-29T04:14:58;5.50;;;1.97;;
68432;SDS011;55412;51.350;17.056;2024-03-29T04:17:24;6.30;;;2.50;;
68432;SDS011;55412;51.350;17.056;2024-03-29T04:19:50;4.82;;;1.90;;
68432;SDS011;55412;51.350;17.056;2024-03-29T04:22:15;5.33;;;2.17;;
68432;SDS011;55412;51.350;17.056;2024-03-29T04:24:41;8.82;;;2.30;;
68432;SDS011;55412;51.350;17.056;2024-03-29T04:27:07;5.47;;;2.27;;
68432;SDS011;55412;51.350;17.056;2024-03-29T04:29:32;4.60;;;1.60;;
68432;SDS011;55412;51.350;17.056;2024-03-29T04:31:58;5.87;;;2.00;;
68432;SDS011;55412;51.350;17.056;2024-03-29T04:34:24;6.28;;;1.80;;
68432;SDS011;55412;51.350;17.056;2024-03-29T04:36:49;7.73;;;2.20;;
68432;SDS011;55412;51.350;17.056;2024-03-29T04:39:15;3.60;;;1.27;;
68432;SDS011;55412;51.350;17.056;2024-03-29T04:41:41;4.37;;;1.70;;
68432;SDS011;55412;51.350;17.056;2024-03-29T04:44:07;5.75;;;1.92;;
68432;SDS011;55412;51.350;17.056;2024-03-29T04:46:33;4.28;;;1.83;;
68432;SDS011;55412;51.350;17.056;2024-03-29T04:48:59;6.90;;;1.73;;
68432;SDS011;55412;51.350;17.056;2024-03-29T04:51:25;4.77;;;1.27;;
68432;SDS011;55412;51.350;17.056;2024-03-29T04:53:50;5.10;;;1.63;;
68432;SDS011;55412;51.350;17.056;2024-03-29T04:56:16;4.78;;;1.80;;
68432;SDS011;55412;51.350;17.056;2024-03-29T04:58:42;4.47;;;1.20;;
68432;SDS011;55412;51.350;17.056;2024-03-29T05:01:08;4.80;;;1.45;;
68432;SDS011;55412;51.350;17.056;2024-03-29T05:03:33;5.20;;;1.50;;
68432;SDS011;55412;51.350;17.056;2024-03-29T05:06:00;5.13;;;1.75;;
68432;SDS011;55412;51.350;17.056;2024-03-29T05:08:26;5.65;;;1.45;;
68432;SDS011;55412;51.350;17.056;2024-03-29T05:10:51;5.87;;;1.63;;
68432;SDS011;55412;51.350;17.056;2024-03-29T05:13:17;4.53;;;1.10;;
68432;SDS011;55412;51.350;17.056;2024-03-29T05:15:45;4.82;;;1.55;;
68432;SDS011;55412;51.350;17.056;2024-03-29T05:18:12;6.53;;;1.40;;
68432;SDS011;55412;51.350;17.056;2024-03-29T05:20:38;4.18;;;1.10;;
68432;SDS011;55412;51.350;17.056;2024-03-29T05:23:12;4.47;;;1.00;;
68432;SDS011;55412;51.350;17.056;2024-03-29T05:25:39;3.10;;;0.88;;
68432;SDS011;55412;51.350;17.056;2024-03-29T05:28:06;4.57;;;0.98;;
68432;SDS011;55412;51.350;17.056;2024-03-29T05:30:32;3.93;;;0.93;;
68432;SDS011;55412;51.350;17.056;2024-03-29T05:32:59;5.00;;;1.10;;
68432;SDS011;55412;51.350;17.056;2024-03-29T05:35:25;4.57;;;1.45;;
68432;SDS011;55412;51.350;17.056;2024-03-29T05:37:51;3.90;;;1.13;;
68432;SDS011;55412;51.350;17.056;2024-03-29T05:40:19;3.40;;;0.90;;
68432;SDS011;55412;51.350;17.056;2024-03-29T05:42:46;3.95;;;1.17;;
68432;SDS011;55412;51.350;17.056;2024-03-29T05:45:25;5.00;;;1.00;;
68432;SDS011;55412;51.350;17.056;2024-03-29T05:47:54;3.35;;;0.90;;
68432;SDS011;55412;51.350;17.056;2024-03-29T05:50:21;4.30;;;0.80;;
68432;SDS011;55412;51.350;17.056;2024-03-29T05:52:48;3.22;;;0.85;;
68432;SDS011;55412;51.350;17.056;2024-03-29T05:55:14;4.03;;;1.10;;
68432;SDS011;55412;51.350;17.056;2024-03-29T05:57:40;4.40;;;1.15;;
68432;SDS011;55412;51.350;17.056;2024-03-29T06:00:10;4.88;;;0.98;;
68432;SDS011;55412;51.350;17.056;2024-03-29T06:02:37;5.57;;;0.88;;
68432;SDS011;55412;51.350;17.056;2024-03-29T06:05:03;4.27;;;0.80;;
68432;SDS011;55412;51.350;17.056;2024-03-29T06:07:30;4.57;;;0.70;;
68432;SDS011;55412;51.350;17.056;2024-03-29T06:09:59;4.47;;;0.93;;
68432;SDS011;55412;51.350;17.056;2024-03-29T06:12:29;4.10;;;0.82;;
68432;SDS011;55412;51.350;17.056;2024-03-29T06:14:55;3.97;;;0.63;;
68432;SDS011;55412;51.350;17.056;2024-03-29T06:17:39;4.40;;;0.60;;
68432;SDS011;55412;51.350;17.056;2024-03-29T06:20:04;4.10;;;0.80;;
68432;SDS011;55412;51.350;17.056;2024-03-29T06:22:30;3.95;;;0.60;;
68432;SDS011;55412;51.350;17.056;2024-03-29T06:24:56;6.43;;;1.00;;
68432;SDS011;55412;51.350;17.056;2024-03-29T06:27:33;4.55;;;0.60;;
68432;SDS011;55412;51.350;17.056;2024-03-29T06:30:00;4.68;;;0.88;;
68432;SDS011;55412;51.350;17.056;2024-03-29T06:32:26;4.57;;;0.70;;
68432;SDS011;55412;51.350;17.056;2024-03-29T06:34:52;3.73;;;1.10;;
68432;SDS011;55412;51.350;17.056;2024-03-29T06:37:18;4.28;;;0.68;;
68432;SDS011;55412;51.350;17.056;2024-03-29T06:39:47;5.20;;;0.70;;
68432;SDS011;55412;51.350;17.056;2024-03-29T06:42:13;4.38;;;0.75;;
68432;SDS011;55412;51.350;17.056;2024-03-29T06:44:39;2.77;;;0.60;;
68432;SDS011;55412;51.350;17.056;2024-03-29T06:47:06;2.67;;;0.60;;
68432;SDS011;55412;51.350;17.056;2024-03-29T06:49:32;3.20;;;0.70;;
68432;SDS011;55412;51.350;17.056;2024-03-29T06:51:58;5.73;;;0.80;;
68432;SDS011;55412;51.350;17.056;2024-03-29T06:54:26;3.95;;;0.90;;
68432;SDS011;55412;51.350;17.056;2024-03-29T06:56:53;3.97;;;0.43;;
68432;SDS011;55412;51.350;17.056;2024-03-29T06:59:19;5.30;;;0.90;;
68432;SDS011;55412;51.350;17.056;2024-03-29T07:01:45;4.90;;;0.57;;
68432;SDS011;55412;51.350;17.056;2024-03-29T07:04:12;2.60;;;0.35;;
68432;SDS011;55412;51.350;17.056;2024-03-29T07:06:38;5.07;;;0.50;;
68432;SDS011;55412;51.350;17.056;2024-03-29T07:09:07;4.93;;;0.47;;
68432;SDS011;55412;51.350;17.056;2024-03-29T07:11:35;3.58;;;0.60;;
68432;SDS011;55412;51.350;17.056;2024-03-29T07:14:01;2.90;;;0.40;;
68432;SDS011;55412;51.350;17.056;2024-03-29T07:16:27;4.05;;;1.15;;
68432;SDS011;55412;51.350;17.056;2024-03-29T07:18:53;3.37;;;0.50;;
68432;SDS011;55412;51.350;17.056;2024-03-29T07:21:18;2.40;;;0.30;;
68432;SDS011;55412;51.350;17.056;2024-03-29T07:23:44;5.55;;;0.50;;
68432;SDS011;55412;51.350;17.056;2024-03-29T07:26:10;4.57;;;0.40;;
68432;SDS011;55412;51.350;17.056;2024-03-29T07:28:36;2.83;;;0.38;;
68432;SDS011;55412;51.350;17.056;2024-03-29T07:31:06;3.28;;;0.50;;
68432;SDS011;55412;51.350;17.056;2024-03-29T07:33:35;3.35;;;0.47;;
68432;SDS011;55412;51.350;17.056;2024-03-29T07:36:02;3.03;;;0.60;;
68432;SDS011;55412;51.350;17.056;2024-03-29T07:38:29;2.47;;;0.43;;
68432;SDS011;55412;51.350;17.056;2024-03-29T07:40:55;4.00;;;0.60;;
68432;SDS011;55412;51.350;17.056;2024-03-29T07:43:21;4.25;;;0.70;;
68432;SDS011;55412;51.350;17.056;2024-03-29T07:45:47;5.25;;;0.60;;
68432;SDS011;55412;51.350;17.056;2024-03-29T07:48:14;4.20;;;0.50;;
68432;SDS011;55412;51.350;17.056;2024-03-29T07:50:42;5.00;;;0.52;;
68432;SDS011;55412;51.350;17.056;2024-03-29T07:53:09;3.72;;;0.50;;
68432;SDS011;55412;51.350;17.056;2024-03-29T07:55:38;3.33;;;0.43;;
68432;SDS011;55412;51.350;17.056;2024-03-29T07:58:06;2.93;;;0.37;;
68432;SDS011;55412;51.350;17.056;2024-03-29T08:00:34;2.75;;;0.52;;
68432;SDS011;55412;51.350;17.056;2024-03-29T08:03:00;3.28;;;0.52;;
68432;SDS011;55412;51.350;17.056;2024-03-29T08:05:29;3.72;;;0.50;;
68432;SDS011;55412;51.350;17.056;2024-03-29T08:07:55;5.13;;;0.50;;
68432;SDS011;55412;51.350;17.056;2024-03-29T08:10:21;1.90;;;0.30;;
68432;SDS011;55412;51.350;17.056;2024-03-29T08:12:47;4.10;;;0.60;;
68432;SDS011;55412;51.350;17.056;2024-03-29T08:15:13;2.83;;;0.40;;
68432;SDS011;55412;51.350;17.056;2024-03-29T08:17:39;7.43;;;0.50;;
68432;SDS011;55412;51.350;17.056;2024-03-29T08:20:05;3.17;;;0.40;;
68432;SDS011;55412;51.350;17.056;2024-03-29T08:22:31;4.45;;;0.60;;
68432;SDS011;55412;51.350;17.056;2024-03-29T08:24:59;5.27;;;0.57;;
68432;SDS011;55412;51.350;17.056;2024-03-29T08:27:26;2.13;;;0.22;;
68432;SDS011;55412;51.350;17.056;2024-03-29T08:29:52;1.95;;;0.30;;
68432;SDS011;55412;51.350;17.056;2024-03-29T08:32:18;3.00;;;0.40;;
68432;SDS011;55412;51.350;17.056;2024-03-29T08:34:44;3.53;;;0.40;;
68432;SDS011;55412;51.350;17.056;2024-03-29T08:37:10;3.67;;;0.30;;
68432;SDS011;55412;51.350;17.056;2024-03-29T08:39:35;2.42;;;0.30;;
68432;SDS011;55412;51.350;17.056;2024-03-29T08:42:03;3.53;;;0.40;;
68432;SDS011;55412;51.350;17.056;2024-03-29T08:44:34;4.97;;;0.57;;
68432;SDS011;55412;51.350;17.056;2024-03-29T08:47:01;3.63;;;0.40;;
68432;SDS011;55412;51.350;17.056;2024-03-29T08:49:28;4.30;;;0.30;;
68432;SDS011;55412;51.350;17.056;2024-03-29T08:51:54;2.78;;;0.40;;
68432;SDS011;55412;51.350;17.056;2024-03-29T08:54:20;2.37;;;0.20;;
68432;SDS011;55412;51.350;17.056;2024-03-29T08:56:46;2.50;;;0.57;;
68432;SDS011;55412;51.350;17.056;2024-03-29T08:59:12;5.03;;;0.63;;
68432;SDS011;55412;51.350;17.056;2024-03-29T09:01:41;2.33;;;0.20;;
68432;SDS011;55412;51.350;17.056;2024-03-29T09:04:09;6.68;;;0.30;;
68432;SDS011;55412;51.350;17.056;2024-03-29T09:06:36;4.20;;;0.45;;
68432;SDS011;55412;51.350;17.056;2024-03-29T09:09:04;4.72;;;0.32;;
68432;SDS011;55412;51.350;17.056;2024-03-29T09:11:30;2.67;;;0.30;;
68432;SDS011;55412;51.350;17.056;2024-03-29T09:13:56;2.17;;;0.30;;
68432;SDS011;55412;51.350;17.056;2024-03-29T09:16:23;2.20;;;0.40;;
68432;SDS011;55412;51.350;17.056;2024-03-29T09:18:56;3.05;;;0.40;;
68432;SDS011;55412;51.350;17.056;2024-03-29T09:21:22;3.50;;;0.50;;
68432;SDS011;55412;51.350;17.056;2024-03-29T09:23:48;2.37;;;0.40;;
68432;SDS011;55412;51.350;17.056;2024-03-29T09:26:17;3.43;;;1.13;;
68432;SDS011;55412;51.350;17.056;2024-03-29T09:28:43;3.10;;;0.40;;
68432;SDS011;55412;51.350;17.056;2024-03-29T09:31:09;3.75;;;0.68;;
68432;SDS011;55412;51.350;17.056;2024-03-29T09:33:35;2.60;;;0.30;;
68432;SDS011;55412;51.350;17.056;2024-03-29T09:36:01;3.22;;;0.30;;
68432;SDS011;55412;51.350;17.056;2024-03-29T09:38:26;1.83;;;0.20;;
68432;SDS011;55412;51.350;17.056;2024-03-29T09:41:03;2.83;;;0.35;;
68432;SDS011;55412;51.350;17.056;2024-03-29T09:43:41;2.70;;;0.30;;
68432;SDS011;55412;51.350;17.056;2024-03-29T09:46:10;2.03;;;0.22;;
68432;SDS011;55412;51.350;17.056;2024-03-29T09:48:37;2.57;;;0.20;;
68432;SDS011;55412;51.350;17.056;2024-03-29T09:51:04;3.92;;;0.20;;
68432;SDS011;55412;51.350;17.056;2024-03-29T09:53:32;2.67;;;0.32;;
68432;SDS011;55412;51.350;17.056;2024-03-29T09:55:59;2.63;;;0.40;;
68432;SDS011;55412;51.350;17.056;2024-03-29T09:58:27;3.05;;;0.40;;
68432;SDS011;55412;51.350;17.056;2024-03-29T10:00:54;2.40;;;0.60;;
68432;SDS011;55412;51.350;17.056;2024-03-29T10:03:21;4.07;;;0.40;;
68432;SDS011;55412;51.350;17.056;2024-03-29T10:05:58;4.97;;;0.75;;
68432;SDS011;55412;51.350;17.056;2024-03-29T10:08:28;2.10;;;0.33;;
68432;SDS011;55412;51.350;17.056;2024-03-29T10:10:58;2.40;;;0.30;;
68432;SDS011;55412;51.350;17.056;2024-03-29T10:13:24;3.17;;;1.08;;
68432;SDS011;55412;51.350;17.056;2024-03-29T10:15:51;4.05;;;0.60;;
68432;SDS011;55412;51.350;17.056;2024-03-29T10:18:26;3.25;;;0.40;;
68432;SDS011;55412;51.350;17.056;2024-03-29T10:23:28;3.55;;;0.50;;
68432;SDS011;55412;51.350;17.056;2024-03-29T10:25:54;2.63;;;0.30;;
68432;SDS011;55412;51.350;17.056;2024-03-29T10:28:20;2.63;;;0.20;;
68432;SDS011;55412;51.350;17.056;2024-03-29T10:30:46;3.77;;;0.43;;
68432;SDS011;55412;51.350;17.056;2024-03-29T10:33:12;3.08;;;0.88;;
68432;SDS011;55412;51.350;17.056;2024-03-29T10:35:41;4.05;;;0.50;;
68432;SDS011;55412;51.350;17.056;2024-03-29T10:38:09;1.77;;;0.40;;
68432;SDS011;55412;51.350;17.056;2024-03-29T10:40:35;4.72;;;0.68;;
68432;SDS011;55412;51.350;17.056;2024-03-29T10:43:03;2.63;;;0.30;;
68432;SDS011;55412;51.350;17.056;2024-03-29T10:45:34;9.02;;;0.55;;
68432;SDS011;55412;51.350;17.056;2024-03-29T10:48:02;6.18;;;0.50;;
68432;SDS011;55412;51.350;17.056;2024-03-29T10:50:34;3.53;;;0.40;;
68432;SDS011;55412;51.350;17.056;2024-03-29T10:53:01;7.15;;;0.60;;
68432;SDS011;55412;51.350;17.056;2024-03-29T10:55:32;5.70;;;0.50;;
68432;SDS011;55412;51.350;17.056;2024-03-29T10:58:00;2.90;;;0.40;;
68432;SDS011;55412;51.350;17.056;2024-03-29T11:00:32;3.75;;;0.45;;
68432;SDS011;55412;51.350;17.056;2024-03-29T11:05:35;2.90;;;0.40;;
68432;SDS011;55412;51.350;17.056;2024-03-29T11:08:06;4.53;;;0.40;;
68432;SDS011;55412;51.350;17.056;2024-03-29T11:10:44;4.15;;;0.57;;
68432;SDS011;55412;51.350;17.056;2024-03-29T11:15:51;5.67;;;0.60;;
68432;SDS011;55412;51.350;17.056;2024-03-29T11:18:17;12.90;;;1.42;;
68432;SDS011;55412;51.350;17.056;2024-03-29T11:20:45;5.80;;;0.57;;
68432;SDS011;55412;51.350;17.056;2024-03-29T11:23:16;6.88;;;0.70;;
68432;SDS011;55412;51.350;17.056;2024-03-29T11:26:05;9.60;;;2.05;;
68432;SDS011;55412;51.350;17.056;2024-03-29T11:28:34;1.80;;;0.30;;
68432;SDS011;55412;51.350;17.056;2024-03-29T11:31:01;15.73;;;2.67;;
68432;SDS011;55412;51.350;17.056;2024-03-29T11:38:38;9.55;;;1.77;;
68432;SDS011;55412;51.350;17.056;2024-03-29T11:41:12;4.70;;;0.40;;
68432;SDS011;55412;51.350;17.056;2024-03-29T11:43:39;40.78;;;6.32;;
68432;SDS011;55412;51.350;17.056;2024-03-29T11:46:12;14.55;;;1.00;;
68432;SDS011;55412;51.350;17.056;2024-03-29T11:48:39;13.57;;;1.70;;
68432;SDS011;55412;51.350;17.056;2024-03-29T11:51:11;3.00;;;0.50;;
68432;SDS011;55412;51.350;17.056;2024-03-29T11:53:43;2.33;;;0.30;;
68432;SDS011;55412;51.350;17.056;2024-03-29T11:56:09;1.90;;;0.30;;
68432;SDS011;55412;51.350;17.056;2024-03-29T11:58:40;3.95;;;0.40;;
68432;SDS011;55412;51.350;17.056;2024-03-29T12:01:06;4.13;;;0.90;;
68432;SDS011;55412;51.350;17.056;2024-03-29T12:03:39;3.80;;;0.50;;
68432;SDS011;55412;51.350;17.056;2024-03-29T12:06:05;3.27;;;0.40;;
68432;SDS011;55412;51.350;17.056;2024-03-29T12:08:32;4.97;;;0.30;;
68432;SDS011;55412;51.350;17.056;2024-03-29T12:11:00;3.58;;;0.63;;
68432;SDS011;55412;51.350;17.056;2024-03-29T12:13:27;2.30;;;0.50;;
68432;SDS011;55412;51.350;17.056;2024-03-29T12:15:53;4.37;;;0.70;;
68432;SDS011;55412;51.350;17.056;2024-03-29T12:18:20;6.07;;;0.85;;
68432;SDS011;55412;51.350;17.056;2024-03-29T12:20:47;2.90;;;0.60;;
68432;SDS011;55412;51.350;17.056;2024-03-29T12:23:15;1.83;;;0.43;;
68432;SDS011;55412;51.350;17.056;2024-03-29T12:25:42;5.43;;;0.70;;
68432;SDS011;55412;51.350;17.056;2024-03-29T12:28:11;8.67;;;0.40;;
68432;SDS011;55412;51.350;17.056;2024-03-29T12:30:46;10.88;;;0.57;;
68432;SDS011;55412;51.350;17.056;2024-03-29T12:33:13;2.20;;;0.40;;
68432;SDS011;55412;51.350;17.056;2024-03-29T12:35:43;2.80;;;0.40;;
68432;SDS011;55412;51.350;17.056;2024-03-29T12:38:12;2.58;;;0.50;;
68432;SDS011;55412;51.350;17.056;2024-03-29T12:40:40;3.33;;;0.23;;
68432;SDS011;55412;51.350;17.056;2024-03-29T12:43:08;2.50;;;0.35;;
68432;SDS011;55412;51.350;17.056;2024-03-29T12:45:35;3.25;;;0.38;;
68432;SDS011;55412;51.350;17.056;2024-03-29T12:48:09;2.85;;;0.50;;
68432;SDS011;55412;51.350;17.056;2024-03-29T12:50:43;3.63;;;0.63;;
68432;SDS011;55412;51.350;17.056;2024-03-29T12:53:10;2.20;;;0.40;;
68432;SDS011;55412;51.350;17.056;2024-03-29T12:55:39;6.28;;;0.50;;
68432;SDS011;55412;51.350;17.056;2024-03-29T12:58:07;2.80;;;0.50;;
68432;SDS011;55412;51.350;17.056;2024-03-29T13:00:35;5.75;;;0.50;;
68432;SDS011;55412;51.350;17.056;2024-03-29T13:03:04;3.35;;;0.55;;
68432;SDS011;55412;51.350;17.056;2024-03-29T13:05:31;2.00;;;0.30;;
68432;SDS011;55412;51.350;17.056;2024-03-29T13:08:03;2.45;;;0.28;;
68432;SDS011;55412;51.350;17.056;2024-03-29T13:10:30;2.83;;;0.60;;
68432;SDS011;55412;51.350;17.056;2024-03-29T13:12:56;3.72;;;0.38;;
68432;SDS011;55412;51.350;17.056;2024-03-29T13:15:23;2.20;;;0.50;;
68432;SDS011;55412;51.350;17.056;2024-03-29T13:17:53;2.70;;;0.60;;
68432;SDS011;55412;51.350;17.056;2024-03-29T13:20:20;2.70;;;0.52;;
68432;SDS011;55412;51.350;17.056;2024-03-29T13:22:47;2.15;;;0.60;;
68432;SDS011;55412;51.350;17.056;2024-03-29T13:25:18;3.78;;;0.30;;
68432;SDS011;55412;51.350;17.056;2024-03-29T13:27:45;4.07;;;0.50;;
68432;SDS011;55412;51.350;17.056;2024-03-29T13:30:13;2.90;;;0.20;;
68432;SDS011;55412;51.350;17.056;2024-03-29T13:32:42;2.58;;;0.30;;
68432;SDS011;55412;51.350;17.056;2024-03-29T13:35:09;4.10;;;0.47;;
68432;SDS011;55412;51.350;17.056;2024-03-29T13:37:39;4.47;;;0.25;;
68432;SDS011;55412;51.350;17.056;2024-03-29T13:40:07;2.45;;;0.55;;
68432;SDS011;55412;51.350;17.056;2024-03-29T13:42:33;2.80;;;0.20;;
68432;SDS011;55412;51.350;17.056;2024-03-29T13:45:00;3.28;;;0.40;;
68432;SDS011;55412;51.350;17.056;2024-03-29T13:47:26;4.57;;;0.35;;
68432;SDS011;55412;51.350;17.056;2024-03-29T13:49:52;2.38;;;0.30;;
68432;SDS011;55412;51.350;17.056;2024-03-29T13:52:19;2.80;;;0.40;;
68432;SDS011;55412;51.350;17.056;2024-03-29T13:54:45;2.90;;;0.52;;
68432;SDS011;55412;51.350;17.056;2024-03-29T13:57:12;3.25;;;0.40;;
68432;SDS011;55412;51.350;17.056;2024-03-29T13:59:41;1.90;;;0.50;;
68432;SDS011;55412;51.350;17.056;2024-03-29T14:02:13;2.00;;;0.50;;
68432;SDS011;55412;51.350;17.056;2024-03-29T14:04:41;2.23;;;0.60;;
68432;SDS011;55412;51.350;17.056;2024-03-29T14:07:09;2.15;;;0.50;;
68432;SDS011;55412;51.350;17.056;2024-03-29T14:09:39;3.08;;;0.60;;
68432;SDS011;55412;51.350;17.056;2024-03-29T14:12:09;2.08;;;0.25;;
68432;SDS011;55412;51.350;17.056;2024-03-29T14:14:35;4.95;;;0.60;;
68432;SDS011;55412;51.350;17.056;2024-03-29T14:17:01;2.70;;;0.60;;
68432;SDS011;55412;51.350;17.056;2024-03-29T14:19:32;3.58;;;0.70;;
68432;SDS011;55412;51.350;17.056;2024-03-29T14:21:59;2.08;;;0.40;;
68432;SDS011;55412;51.350;17.056;2024-03-29T14:24:29;3.60;;;0.30;;
68432;SDS011;55412;51.350;17.056;2024-03-29T14:26:59;2.30;;;0.50;;
68432;SDS011;55412;51.350;17.056;2024-03-29T14:29:25;2.70;;;0.50;;
68432;SDS011;55412;51.350;17.056;2024-03-29T14:31:51;2.38;;;0.50;;
68432;SDS011;55412;51.350;17.056;2024-03-29T14:34:20;5.40;;;0.70;;
68432;SDS011;55412;51.350;17.056;2024-03-29T14:36:47;7.47;;;0.63;;
68432;SDS011;55412;51.350;17.056;2024-03-29T14:39:12;2.65;;;0.38;;
68432;SDS011;55412;51.350;17.056;2024-03-29T14:41:39;4.10;;;0.50;;
68432;SDS011;55412;51.350;17.056;2024-03-29T14:44:06;6.40;;;0.70;;
68432;SDS011;55412;51.350;17.056;2024-03-29T14:46:35;3.65;;;0.52;;